createdAt,value
2019-04-25T00:01:11.625Z,83.09
2019-04-25T00:03:43.348Z,82.58
2019-04-25T00:06:13.238Z,82.79
2019-04-25T00:08:44.064Z,83.10
2019-04-25T00:11:14.138Z,83.27
2019-04-25T00:13:44.094Z,83.08
2019-04-25T00:16:14.448Z,83.48
2019-04-25T00:18:44.224Z,83.60
2019-04-25T00:21:17.702Z,83.56
2019-04-25T00:23:49.311Z,83.25
2019-04-25T00:26:23.310Z,83.52
2019-04-25T00:28:53.471Z,83.66
2019-04-25T00:31:22.880Z,83.56
2019-04-25T00:33:54.745Z,83.40
2019-04-25T00:36:25.735Z,83.13
2019-04-25T00:38:55.204Z,83.04
2019-04-25T00:41:24.603Z,82.55
2019-04-25T00:43:54.021Z,82.63
2019-04-25T00:46:23.410Z,82.54
2019-04-25T00:48:52.831Z,82.37
2019-04-25T00:51:22.287Z,82.37
2019-04-25T00:53:52.268Z,82.08
2019-04-25T00:56:22.779Z,81.68
2019-04-25T00:59:01.858Z,81.61
2019-04-25T01:01:39.075Z,81.64
2019-04-25T01:04:08.485Z,81.60
2019-04-25T01:06:38.223Z,81.58
2019-04-25T01:09:09.715Z,81.12
2019-04-25T01:11:39.100Z,81.46
2019-04-25T01:14:08.505Z,81.43
2019-04-25T01:16:37.897Z,81.21
2019-04-25T01:19:07.673Z,81.17
2019-04-25T01:21:37.063Z,81.41
2019-04-25T01:24:07.103Z,81.30
2019-04-25T01:26:36.494Z,81.07
2019-04-25T01:29:06.443Z,81.15
2019-04-25T01:31:37.547Z,81.23
2019-04-25T01:34:09.572Z,81.42
2019-04-25T01:36:40.850Z,81.29
2019-04-25T01:39:15.040Z,81.62
2019-04-25T01:41:47.577Z,81.72
2019-04-25T01:44:21.800Z,81.80
2019-04-25T01:46:51.860Z,81.89
2019-04-25T01:49:23.931Z,81.72
2019-04-25T01:51:54.398Z,81.52
2019-04-25T01:54:24.586Z,81.24
2019-04-25T01:56:55.915Z,81.29
2019-04-25T01:59:25.080Z,81.19
2019-04-25T02:01:55.418Z,80.92
2019-04-25T02:04:24.902Z,81.04
2019-04-25T02:06:54.906Z,80.89
2019-04-25T02:09:25.551Z,80.57
2019-04-25T02:11:56.894Z,80.66
2019-04-25T02:14:26.342Z,80.48
2019-04-25T02:16:56.978Z,80.52
2019-04-25T02:19:26.556Z,80.39
2019-04-25T02:21:56.521Z,80.31
2019-04-25T02:24:26.033Z,80.30
2019-04-25T02:26:56.317Z,80.33
2019-04-25T02:29:26.752Z,80.34
2019-04-25T02:31:59.224Z,80.29
2019-04-25T02:34:27.258Z,80.20
2019-04-25T02:37:02.527Z,79.92
2019-04-25T02:39:29.806Z,80.18
2019-04-25T02:42:01.112Z,80.09
2019-04-25T02:44:31.931Z,80.04
2019-04-25T02:47:06.468Z,80.20
2019-04-25T02:49:39.641Z,80.41
2019-04-25T02:52:17.739Z,80.43
2019-04-25T02:54:45.047Z,80.26
2019-04-25T02:57:14.730Z,80.05
2019-04-25T02:59:45.092Z,80.14
2019-04-25T03:02:15.425Z,79.42
2019-04-25T03:04:45.046Z,79.97
2019-04-25T03:07:17.360Z,79.42
2019-04-25T03:09:45.737Z,79.59
2019-04-25T03:12:29.483Z,79.36
2019-04-25T03:14:46.510Z,79.80
2019-04-25T03:17:15.982Z,79.82
2019-04-25T03:19:49.730Z,79.53
2019-04-25T03:22:27.457Z,79.00
2019-04-25T03:24:56.949Z,79.17
2019-04-25T03:27:26.335Z,79.13
2019-04-25T03:29:55.739Z,79.23
2019-04-25T03:32:28.289Z,79.34
2019-04-25T03:34:57.639Z,79.53
2019-04-25T03:37:28.407Z,79.44
2019-04-25T03:39:57.830Z,79.15
2019-04-25T03:42:27.358Z,79.13
2019-04-25T03:44:56.867Z,79.13
2019-04-25T03:47:26.339Z,79.10
2019-04-25T03:49:55.760Z,79.04
2019-04-25T03:52:25.143Z,78.59
2019-04-25T03:54:56.744Z,79.19
2019-04-25T03:57:25.637Z,79.00
2019-04-25T03:59:55.137Z,79.10
2019-04-25T04:02:24.530Z,78.98
2019-04-25T04:04:53.952Z,79.39
2019-04-25T04:07:23.768Z,79.51
2019-04-25T04:09:54.924Z,79.69
2019-04-25T04:12:24.503Z,80.20
2019-04-25T04:14:53.936Z,80.51
2019-04-25T04:17:36.745Z,80.86
2019-04-25T04:20:10.978Z,81.14
2019-04-25T04:22:59.844Z,81.30
2019-04-25T04:25:29.516Z,80.98
2019-04-25T04:27:58.976Z,80.76
2019-04-25T04:30:28.376Z,80.33
2019-04-25T04:32:57.781Z,80.16
2019-04-25T04:35:27.544Z,79.81
2019-04-25T04:37:58.531Z,79.00
2019-04-25T04:40:27.945Z,78.26
2019-04-25T04:42:57.436Z,77.74
2019-04-25T04:45:26.843Z,78.18
2019-04-25T04:47:56.250Z,78.68
2019-04-25T04:50:25.662Z,77.90
2019-04-25T04:52:55.044Z,76.16
2019-04-25T04:55:24.446Z,76.67
2019-04-25T04:57:54.258Z,75.53
2019-04-25T05:00:25.084Z,75.92
2019-04-25T05:02:59.009Z,75.23
2019-04-25T05:05:30.666Z,74.79
2019-04-25T05:08:11.077Z,74.35
2019-04-25T05:10:40.486Z,73.30
2019-04-25T05:13:09.879Z,73.72
2019-04-25T05:15:39.292Z,74.23
2019-04-25T05:18:08.720Z,73.91
2019-04-25T05:20:38.140Z,72.98
2019-04-25T05:23:08.915Z,72.59
2019-04-25T05:25:38.506Z,72.41
2019-04-25T05:28:07.955Z,71.48
2019-04-25T05:30:47.515Z,72.17
2019-04-25T05:33:19.121Z,72.43
2019-04-25T05:35:48.736Z,72.53
2019-04-25T05:38:20.113Z,72.39
2019-04-25T05:40:51.248Z,71.59
2019-04-25T05:43:26.543Z,71.21
2019-04-25T05:45:56.549Z,70.33
2019-04-25T05:48:26.302Z,70.53
2019-04-25T05:50:55.810Z,71.29
2019-04-25T05:53:26.217Z,71.12
2019-04-25T05:55:55.818Z,72.60
2019-04-25T05:58:25.891Z,71.09
2019-04-25T06:00:56.465Z,71.06
2019-04-25T06:03:26.330Z,70.34
2019-04-25T06:05:56.863Z,69.53
2019-04-25T06:08:28.075Z,70.42
2019-04-25T06:10:59.131Z,69.64
2019-04-25T06:13:43.408Z,69.88
2019-04-25T06:16:14.635Z,69.67
2019-04-25T06:19:12.971Z,70.11
2019-04-25T06:21:33.558Z,69.45
2019-04-25T06:24:13.643Z,72.13
2019-04-25T06:26:44.857Z,71.64
2019-04-25T06:29:14.253Z,72.03
2019-04-25T06:31:43.946Z,71.71
2019-04-25T06:34:14.102Z,70.99
2019-04-25T06:36:44.079Z,72.45
2019-04-25T06:39:14.294Z,71.83
2019-04-25T06:41:44.201Z,72.07
2019-04-25T06:44:15.321Z,71.35
2019-04-25T06:46:48.789Z,70.10
2019-04-25T06:49:26.842Z,69.40
2019-04-25T06:51:56.686Z,71.22
2019-04-25T06:54:27.227Z,72.70
2019-04-25T06:56:57.202Z,73.16
2019-04-25T06:59:27.923Z,73.91
2019-04-25T07:01:57.720Z,74.31
2019-04-25T07:04:28.021Z,74.02
2019-04-25T07:07:09.690Z,74.19
2019-04-25T07:09:30.870Z,73.79
2019-04-25T07:12:00.517Z,73.17
2019-04-25T07:14:29.982Z,73.01
2019-04-25T07:16:59.411Z,73.29
2019-04-25T07:19:29.846Z,73.84
2019-04-25T07:21:59.537Z,75.01
2019-04-25T07:24:29.018Z,74.83
2019-04-25T07:27:16.289Z,74.93
2019-04-25T07:29:53.898Z,75.54
2019-04-25T07:32:29.638Z,76.24
2019-04-25T07:34:56.123Z,75.49
2019-04-25T07:37:26.064Z,74.62
2019-04-25T07:39:55.487Z,74.88
2019-04-25T07:42:25.932Z,72.22
2019-04-25T07:44:55.481Z,72.58
2019-04-25T07:47:26.731Z,72.51
2019-04-25T07:49:56.168Z,71.40
2019-04-25T07:52:26.959Z,71.61
2019-04-25T07:54:56.552Z,70.88
2019-04-25T07:57:26.951Z,71.80
2019-04-25T07:59:57.139Z,71.09
2019-04-25T08:02:27.305Z,70.29
2019-04-25T08:04:57.534Z,65.13
2019-04-25T08:07:28.029Z,68.15
2019-04-25T08:09:57.525Z,68.65
2019-04-25T08:12:28.258Z,69.85
2019-04-25T08:14:59.459Z,69.62
2019-04-25T08:17:47.146Z,70.75
2019-04-25T08:20:19.121Z,70.18
2019-04-25T08:22:56.262Z,69.97
2019-04-25T08:25:20.180Z,68.66
2019-04-25T08:27:49.752Z,70.09
2019-04-25T08:30:19.294Z,69.50
2019-04-25T08:32:48.715Z,67.37
2019-04-25T08:35:18.192Z,67.20
2019-04-25T08:37:47.623Z,66.70
2019-04-25T08:40:18.151Z,66.11
2019-04-25T08:42:47.570Z,66.54
2019-04-25T08:45:17.898Z,66.29
2019-04-25T08:47:47.316Z,64.41
2019-04-25T08:50:33.116Z,65.58
2019-04-25T08:53:01.788Z,66.39
2019-04-25T08:55:34.696Z,62.81
2019-04-25T08:58:20.748Z,64.54
2019-04-25T09:01:04.032Z,65.59
2019-04-25T09:03:38.272Z,64.20
2019-04-25T09:06:08.542Z,62.60
2019-04-25T09:08:38.553Z,62.66
2019-04-25T09:11:08.910Z,61.75
2019-04-25T09:13:39.496Z,61.73
2019-04-25T09:16:08.974Z,62.34
2019-04-25T09:18:38.386Z,63.55
2019-04-25T09:21:07.780Z,62.43
2019-04-25T09:23:37.909Z,61.95
2019-04-25T09:26:07.375Z,61.35
2019-04-25T09:28:38.961Z,60.88
2019-04-25T09:31:07.942Z,60.91
2019-04-25T09:33:37.348Z,60.44
2019-04-25T09:36:06.994Z,60.85
2019-04-25T09:38:36.961Z,61.82
2019-04-25T09:41:06.643Z,60.01
2019-04-25T09:43:37.270Z,59.97
2019-04-25T09:46:08.402Z,61.05
2019-04-25T09:48:40.295Z,59.34
2019-04-25T09:51:14.491Z,58.92
2019-04-25T09:53:50.088Z,59.68
2019-04-25T09:56:20.884Z,59.86
2019-04-25T09:58:53.743Z,60.40
2019-04-25T10:01:24.663Z,60.34
2019-04-25T10:03:54.414Z,59.51
2019-04-25T10:06:24.415Z,57.89
2019-04-25T10:08:54.360Z,59.12
2019-04-25T10:11:23.983Z,56.44
2019-04-25T10:13:56.447Z,56.82
2019-04-25T10:16:26.101Z,55.29
2019-04-25T10:18:55.536Z,49.74
2019-04-25T10:21:25.117Z,47.97
2019-04-25T10:23:54.602Z,46.07
2019-04-25T10:26:25.504Z,44.77
2019-04-25T10:28:54.912Z,44.10
2019-04-25T10:31:24.311Z,44.19
2019-04-25T10:33:54.596Z,44.14
2019-04-25T10:36:24.679Z,45.46
2019-04-25T10:39:04.286Z,45.09
2019-04-25T10:41:25.327Z,46.65
2019-04-25T10:43:56.146Z,49.21
2019-04-25T10:46:25.608Z,50.52
2019-04-25T10:48:56.191Z,52.22
2019-04-25T10:51:25.685Z,54.75
2019-04-25T10:53:55.180Z,54.83
2019-04-25T10:56:24.572Z,54.86
2019-04-25T10:58:54.940Z,56.47
2019-04-25T11:01:24.597Z,58.62
2019-04-25T11:03:55.805Z,57.84
2019-04-25T11:06:27.226Z,55.17
2019-04-25T11:08:56.685Z,55.82
2019-04-25T11:11:26.466Z,55.43
2019-04-25T11:13:57.578Z,55.23
2019-04-25T11:16:26.989Z,55.16
2019-04-25T11:18:56.770Z,53.58
2019-04-25T11:21:26.186Z,52.98
2019-04-25T11:23:55.655Z,49.86
2019-04-25T11:26:26.145Z,49.48
2019-04-25T11:28:56.297Z,50.65
2019-04-25T11:31:27.657Z,51.15
2019-04-25T11:33:57.132Z,52.22
2019-04-25T11:36:26.619Z,53.18
2019-04-25T11:38:57.673Z,53.82
2019-04-25T11:41:27.219Z,55.01
2019-04-25T11:43:56.859Z,54.90
2019-04-25T11:46:26.439Z,54.16
2019-04-25T11:48:55.925Z,53.72
2019-04-25T11:51:25.339Z,53.72
2019-04-25T11:53:55.590Z,52.00
2019-04-25T11:56:25.311Z,51.72
2019-04-25T11:58:55.277Z,49.95
2019-04-25T12:01:24.840Z,49.76
2019-04-25T12:03:55.819Z,49.35
2019-04-25T12:06:25.541Z,48.50
2019-04-25T12:08:55.280Z,48.40
2019-04-25T12:11:25.644Z,48.58
2019-04-25T12:13:55.391Z,47.62
2019-04-25T12:16:25.386Z,45.87
2019-04-25T12:18:56.341Z,41.25
2019-04-25T12:21:25.945Z,40.55
2019-04-25T12:23:55.515Z,40.77
2019-04-25T12:26:26.284Z,40.50
2019-04-25T12:28:56.603Z,42.20
2019-04-25T12:31:26.127Z,42.18
2019-04-25T12:33:56.423Z,42.38
2019-04-25T12:36:26.705Z,43.91
2019-04-25T12:38:56.114Z,42.79
2019-04-25T12:41:25.526Z,43.67
2019-04-25T12:46:50.491Z,39.54
2019-04-25T12:49:19.916Z,40.01
2019-04-25T12:51:49.803Z,39.24
2019-04-25T12:54:19.310Z,39.72
2019-04-25T12:56:49.251Z,38.96
2019-04-25T12:59:18.706Z,38.94
2019-04-25T13:01:49.386Z,39.43
2019-04-25T13:04:18.881Z,38.86
2019-04-25T13:06:48.879Z,38.65
2019-04-25T13:09:18.548Z,39.00
2019-04-25T13:11:47.959Z,40.09
2019-04-25T13:14:17.622Z,39.96
2019-04-25T13:16:47.190Z,42.26
2019-04-25T13:19:23.610Z,43.29
2019-04-25T13:21:47.732Z,43.86
2019-04-25T13:24:17.135Z,41.54
2019-04-25T13:27:06.433Z,42.59
2019-04-25T13:29:53.722Z,42.36
2019-04-25T13:32:27.566Z,44.08
2019-04-25T13:34:58.764Z,44.12
2019-04-25T13:37:28.240Z,45.13
2019-04-25T13:39:58.203Z,46.06
2019-04-25T13:42:27.599Z,46.28
2019-04-25T13:44:57.078Z,47.69
2019-04-25T13:47:29.262Z,48.48
2019-04-25T13:49:57.723Z,49.35
2019-04-25T13:52:27.254Z,50.10
2019-04-25T13:54:56.732Z,50.99
2019-04-25T13:57:26.278Z,50.80
2019-04-25T13:59:55.673Z,51.08
2019-04-25T14:02:25.185Z,49.80
2019-04-25T14:04:54.716Z,48.03
2019-04-25T14:07:24.886Z,46.08
2019-04-25T14:09:54.319Z,44.35
2019-04-25T14:12:26.805Z,42.64
2019-04-25T14:14:54.986Z,42.20
2019-04-25T14:17:26.031Z,41.76
2019-04-25T14:19:57.219Z,41.45
2019-04-25T14:22:27.517Z,39.25
2019-04-25T14:24:57.012Z,40.11
2019-04-25T14:27:26.767Z,40.88
2019-04-25T14:29:56.156Z,40.49
2019-04-25T14:32:27.481Z,41.28
2019-04-25T14:34:56.673Z,42.35
2019-04-25T14:37:28.177Z,41.30
2019-04-25T14:39:57.213Z,41.77
2019-04-25T14:42:26.794Z,41.52
2019-04-25T14:44:56.187Z,41.30
2019-04-25T14:47:25.637Z,41.82
2019-04-25T14:49:55.016Z,41.45
2019-04-25T14:52:24.608Z,40.74
2019-04-25T14:55:11.885Z,39.91
2019-04-25T14:57:41.359Z,41.34
2019-04-25T15:00:29.133Z,42.59
2019-04-25T15:02:58.542Z,42.68
2019-04-25T15:05:27.956Z,43.30
2019-04-25T15:07:57.352Z,43.34
2019-04-25T15:10:26.943Z,42.41
2019-04-25T15:12:56.418Z,41.86
2019-04-25T15:15:26.617Z,42.25
2019-04-25T15:17:56.132Z,43.32
2019-04-25T15:20:26.182Z,45.86
2019-04-25T15:22:55.631Z,46.07
2019-04-25T15:25:26.163Z,46.74
2019-04-25T15:27:55.682Z,46.42
2019-04-25T15:30:29.256Z,46.73
2019-04-25T15:32:57.981Z,47.33
2019-04-25T15:35:46.863Z,47.99
2019-04-25T15:38:24.689Z,49.36
2019-04-25T15:40:56.053Z,49.59
2019-04-25T15:43:27.651Z,48.44
2019-04-25T15:46:08.280Z,49.43
2019-04-25T15:48:37.714Z,49.85
2019-04-25T15:51:07.113Z,50.60
2019-04-25T15:53:36.539Z,51.48
2019-04-25T15:56:05.999Z,51.92
2019-04-25T15:58:35.424Z,51.84
2019-04-25T16:01:06.466Z,50.32
2019-04-25T16:03:35.919Z,50.71
2019-04-25T16:06:05.487Z,51.41
2019-04-25T16:08:35.156Z,51.93
2019-04-25T16:11:04.967Z,52.29
2019-04-25T16:13:34.498Z,51.10
2019-04-25T16:16:05.439Z,52.26
2019-04-25T16:18:35.317Z,53.20
2019-04-25T16:21:04.955Z,54.48
2019-04-25T16:23:34.424Z,54.13
2019-04-25T16:26:04.547Z,53.96
2019-04-25T16:28:33.955Z,54.10
2019-04-25T16:31:04.793Z,53.75
2019-04-25T16:33:34.226Z,52.36
2019-04-25T16:36:03.794Z,52.62
2019-04-25T16:38:33.395Z,53.49
2019-04-25T16:41:03.207Z,53.80
2019-04-25T16:43:35.242Z,53.59
2019-04-25T16:46:04.731Z,54.26
2019-04-25T16:48:34.135Z,54.17
2019-04-25T16:51:03.570Z,54.26
2019-04-25T16:53:32.994Z,54.81
2019-04-25T16:56:02.498Z,55.68
2019-04-25T16:58:32.682Z,55.80
2019-04-25T17:01:06.652Z,56.37
2019-04-25T17:03:37.396Z,57.12
2019-04-25T17:06:07.328Z,57.03
2019-04-25T17:08:37.775Z,57.55
2019-04-25T17:11:08.074Z,57.79
2019-04-25T17:13:39.128Z,58.21
2019-04-25T17:16:10.189Z,58.64
2019-04-25T17:18:43.658Z,57.41
2019-04-25T17:21:13.095Z,57.03
2019-04-25T17:23:43.471Z,57.92
2019-04-25T17:26:12.991Z,58.98
2019-04-25T17:28:44.036Z,58.75
2019-04-25T17:31:21.790Z,59.44
2019-04-25T17:34:07.713Z,59.30
2019-04-25T17:36:44.492Z,59.63
2019-04-25T17:39:33.456Z,58.18
2019-04-25T17:42:02.900Z,59.13
2019-04-25T17:44:32.805Z,59.43
2019-04-25T17:47:06.343Z,59.13
2019-04-25T17:49:34.257Z,59.15
2019-04-25T17:52:03.799Z,59.51
2019-04-25T17:54:34.149Z,59.47
2019-04-25T17:57:03.756Z,59.35
2019-04-25T17:59:33.464Z,58.77
2019-04-25T18:02:06.722Z,59.83
2019-04-25T18:04:44.538Z,60.87
2019-04-25T18:07:14.171Z,60.74
2019-04-25T18:09:43.599Z,60.62
2019-04-25T18:12:13.149Z,61.48
2019-04-25T18:14:42.668Z,62.24
2019-04-25T18:17:12.036Z,62.63
2019-04-25T18:19:43.102Z,62.87
2019-04-25T18:22:14.209Z,63.29
2019-04-25T18:24:45.463Z,63.31
2019-04-25T18:27:16.470Z,63.31
2019-04-25T18:29:46.307Z,63.81
2019-04-25T18:32:15.772Z,64.35
2019-04-25T18:34:49.761Z,64.46
2019-04-25T18:37:37.330Z,64.96
2019-04-25T18:40:08.990Z,64.99
2019-04-25T18:42:40.055Z,65.82
2019-04-25T18:45:11.322Z,66.08
2019-04-25T18:47:40.736Z,65.88
2019-04-25T18:50:12.202Z,66.53
2019-04-25T18:52:43.266Z,66.68
2019-04-25T18:55:29.506Z,66.20
2019-04-25T18:58:18.528Z,67.17
2019-04-25T19:00:49.666Z,67.04
2019-04-25T19:03:25.970Z,67.78
2019-04-25T19:05:58.823Z,67.46
2019-04-25T19:08:28.464Z,67.79
2019-04-25T19:10:57.890Z,67.85
2019-04-25T19:13:27.468Z,69.18
2019-04-25T19:15:57.237Z,69.02
2019-04-25T19:18:26.653Z,69.35
2019-04-25T19:20:56.112Z,68.66
2019-04-25T19:23:25.529Z,70.28
2019-04-25T19:25:54.951Z,69.64
2019-04-25T19:28:24.539Z,70.43
2019-04-25T19:30:54.488Z,71.39
2019-04-25T19:33:35.020Z,70.31
2019-04-25T19:35:55.580Z,72.34
2019-04-25T19:38:25.083Z,70.85
2019-04-25T19:40:56.316Z,70.03
2019-04-25T19:43:27.402Z,70.88
2019-04-25T19:45:56.975Z,71.59
2019-04-25T19:48:26.423Z,72.88
2019-04-25T19:50:55.883Z,72.86
2019-04-25T19:53:25.406Z,73.86
2019-04-25T19:55:54.820Z,74.22
2019-04-25T19:58:24.264Z,73.34
2019-04-25T20:00:53.674Z,72.20
2019-04-25T20:03:33.840Z,72.34
2019-04-25T20:06:10.916Z,72.77
2019-04-25T20:08:57.276Z,72.56
2019-04-25T20:11:31.065Z,73.74
2019-04-25T20:14:00.483Z,75.33
2019-04-25T20:16:31.629Z,75.32
2019-04-25T20:19:01.063Z,75.64
2019-04-25T20:21:30.506Z,74.34
2019-04-25T20:23:59.922Z,75.46
2019-04-25T20:26:29.444Z,76.25
2019-04-25T20:28:58.951Z,76.06
2019-04-25T20:31:28.492Z,77.20
2019-04-25T20:36:29.258Z,76.81
2019-04-25T20:38:58.962Z,76.15
2019-04-25T20:41:29.946Z,76.57
2019-04-25T20:43:59.987Z,79.11
2019-04-25T20:46:29.460Z,79.06
2019-04-25T20:48:58.958Z,79.50
2019-04-25T20:51:28.476Z,80.69
2019-04-25T20:53:58.014Z,80.13
2019-04-25T20:56:27.448Z,80.46
2019-04-25T20:58:57.678Z,81.94
2019-04-25T21:01:27.183Z,81.75
2019-04-25T21:03:56.788Z,82.24
2019-04-25T21:06:27.881Z,81.67
2019-04-25T21:08:57.601Z,80.88
2019-04-25T21:11:27.089Z,79.90
2019-04-25T21:14:01.438Z,79.55
2019-04-25T21:16:51.846Z,80.93
2019-04-25T21:19:35.143Z,80.85
2019-04-25T21:22:04.552Z,81.23
2019-04-25T21:24:34.103Z,82.29
2019-04-25T21:27:03.796Z,82.53
2019-04-25T21:29:33.245Z,81.33
2019-04-25T21:32:02.654Z,79.64
2019-04-25T21:34:32.150Z,82.00
2019-04-25T21:37:02.255Z,81.48
2019-04-25T21:39:40.153Z,81.90
2019-04-25T21:42:26.867Z,80.51
2019-04-25T21:44:56.596Z,81.29
2019-04-25T21:47:25.999Z,80.26
2019-04-25T21:49:56.497Z,79.36
2019-04-25T21:52:26.264Z,80.94
2019-04-25T21:54:55.967Z,80.81
2019-04-25T21:57:25.669Z,81.20
2019-04-25T22:00:03.229Z,79.71
2019-04-25T22:02:27.087Z,79.99
2019-04-25T22:04:56.918Z,79.01
2019-04-25T22:07:26.889Z,79.41
2019-04-25T22:09:56.953Z,78.43
2019-04-25T22:12:26.563Z,78.18
2019-04-25T22:14:57.099Z,77.80
2019-04-25T22:17:26.566Z,78.18
2019-04-25T22:19:56.759Z,78.83
2019-04-25T22:22:27.227Z,79.11
2019-04-25T22:24:57.281Z,79.65
2019-04-25T22:27:28.743Z,80.25
2019-04-25T22:29:58.785Z,78.85
2019-04-25T22:32:33.763Z,79.46
2019-04-25T22:35:17.311Z,79.94
2019-04-25T22:37:46.733Z,79.10
2019-04-25T22:40:16.209Z,78.55
2019-04-25T22:42:45.641Z,79.49
2019-04-25T22:45:15.035Z,79.17
2019-04-25T22:47:44.453Z,78.06
2019-04-25T22:50:13.992Z,78.78
2019-04-25T22:52:43.411Z,78.29
2019-04-25T22:55:12.825Z,76.97
2019-04-25T22:57:42.448Z,78.04
2019-04-25T23:00:13.924Z,78.04
2019-04-25T23:03:00.883Z,76.81
2019-04-25T23:05:33.059Z,77.75
2019-04-25T23:08:04.054Z,77.20
2019-04-25T23:10:33.457Z,78.49
2019-04-25T23:13:03.318Z,78.54
2019-04-25T23:15:32.763Z,78.18
2019-04-25T23:18:02.905Z,78.80
2019-04-25T23:20:33.660Z,78.78
2019-04-25T23:23:04.228Z,78.84
2019-04-25T23:25:35.809Z,78.33
2019-04-25T23:28:07.791Z,77.74
2019-04-25T23:30:39.294Z,77.98
2019-04-25T23:33:08.697Z,78.05
2019-04-25T23:35:38.988Z,78.63
2019-04-25T23:38:09.884Z,79.19
2019-04-25T23:40:39.856Z,79.00
2019-04-25T23:43:09.624Z,78.24
2019-04-25T23:45:39.042Z,78.21
2019-04-25T23:48:08.618Z,78.49
2019-04-25T23:50:38.030Z,78.99
2019-04-25T23:53:08.080Z,79.05
2019-04-25T23:55:38.614Z,78.03
2019-04-25T23:58:08.817Z,77.06
